createdAt,value
2022-12-17T00:02:38.740Z,91.24
2022-12-17T00:05:24.292Z,91.15
2022-12-17T00:08:15.155Z,90.38
2022-12-17T00:11:01.009Z,90.72
2022-12-17T00:13:46.481Z,90.45
2022-12-17T00:16:32.034Z,90.27
2022-12-17T00:19:21.407Z,90.47
2022-12-17T00:22:06.821Z,90.17
2022-12-17T00:24:52.132Z,90.83
2022-12-17T00:27:37.480Z,90.93
2022-12-17T00:30:23.210Z,91.19
2022-12-17T00:33:09.628Z,90.96
2022-12-17T00:35:56.568Z,91.29
2022-12-17T00:38:41.785Z,90.93
2022-12-17T00:41:27.123Z,91.71
2022-12-17T00:44:12.435Z,91.80
2022-12-17T00:46:57.833Z,91.48
2022-12-17T00:49:43.099Z,90.95
2022-12-17T00:52:29.802Z,91.22
2022-12-17T00:55:15.176Z,90.50
2022-12-17T00:58:00.243Z,90.62
2022-12-17T01:00:45.683Z,91.55
2022-12-17T01:03:31.439Z,91.69
2022-12-17T01:06:20.596Z,91.49
2022-12-17T01:09:07.377Z,91.15
2022-12-17T01:11:52.616Z,90.58
2022-12-17T01:14:41.900Z,90.28
2022-12-17T01:17:26.796Z,90.43
2022-12-17T01:20:14.672Z,90.47
2022-12-17T01:22:59.956Z,90.00
2022-12-17T01:25:49.011Z,90.68
2022-12-17T01:28:40.485Z,90.58
2022-12-17T01:31:29.096Z,90.98
2022-12-17T01:34:16.833Z,90.95
2022-12-17T01:37:02.071Z,90.97
2022-12-17T01:39:47.416Z,90.39
2022-12-17T01:42:33.884Z,91.44
2022-12-17T01:45:19.431Z,90.95
2022-12-17T01:48:06.476Z,90.95
2022-12-17T01:50:58.591Z,90.52
2022-12-17T01:53:46.365Z,90.54
2022-12-17T01:56:31.694Z,90.14
2022-12-17T01:59:18.299Z,89.95
2022-12-17T02:02:03.660Z,90.37
2022-12-17T02:04:48.807Z,90.39
2022-12-17T02:07:43.850Z,90.94
2022-12-17T02:10:42.036Z,90.40
2022-12-17T02:13:32.526Z,90.25
2022-12-17T02:16:22.336Z,90.94
2022-12-17T02:19:11.778Z,90.75
2022-12-17T02:21:58.241Z,91.16
2022-12-17T02:24:50.194Z,91.01
2022-12-17T02:27:36.620Z,90.78
2022-12-17T02:30:24.332Z,90.67
2022-12-17T02:33:10.161Z,90.61
2022-12-17T02:35:58.929Z,89.92
2022-12-17T02:38:45.076Z,90.29
2022-12-17T02:41:33.453Z,90.66
2022-12-17T02:44:35.169Z,90.12
2022-12-17T02:47:23.018Z,89.82
2022-12-17T02:50:07.950Z,89.90
2022-12-17T02:52:55.237Z,89.66
2022-12-17T02:55:40.489Z,89.83
2022-12-17T02:58:25.806Z,90.66
2022-12-17T03:01:12.324Z,90.29
2022-12-17T03:03:57.466Z,90.50
2022-12-17T03:06:42.797Z,90.64
2022-12-17T03:09:28.063Z,90.54
2022-12-17T03:12:13.446Z,90.76
2022-12-17T03:14:58.636Z,90.50
2022-12-17T03:17:45.111Z,91.14
2022-12-17T03:20:30.484Z,90.72
2022-12-17T03:23:20.725Z,91.09
2022-12-17T03:26:06.078Z,90.63
2022-12-17T03:28:51.361Z,90.64
2022-12-17T03:31:36.630Z,90.24
2022-12-17T03:34:23.231Z,90.12
2022-12-17T03:37:08.406Z,89.77
2022-12-17T03:39:53.719Z,90.31
2022-12-17T03:42:39.018Z,90.69
2022-12-17T03:45:25.238Z,90.76
2022-12-17T03:48:10.645Z,90.78
2022-12-17T03:50:59.283Z,90.84
2022-12-17T03:53:44.546Z,91.15
2022-12-17T03:56:29.816Z,90.96
2022-12-17T03:59:15.077Z,90.50
2022-12-17T04:02:00.592Z,90.56
2022-12-17T04:04:45.602Z,90.22
2022-12-17T04:07:32.239Z,90.21
2022-12-17T04:10:17.604Z,90.35
2022-12-17T04:13:02.849Z,90.02
2022-12-17T04:15:48.195Z,90.91
2022-12-17T04:18:45.069Z,90.35
2022-12-17T04:21:30.147Z,90.30
2022-12-17T04:24:16.884Z,89.89
2022-12-17T04:27:02.042Z,90.14
2022-12-17T04:29:47.511Z,90.31
2022-12-17T04:32:35.446Z,90.47
2022-12-17T04:35:20.839Z,90.57
2022-12-17T04:38:05.677Z,90.05
2022-12-17T04:40:52.205Z,90.35
2022-12-17T04:43:37.958Z,90.90
2022-12-17T04:46:23.277Z,90.46
2022-12-17T04:49:08.465Z,90.86
2022-12-17T04:51:53.647Z,90.51
2022-12-17T04:54:38.920Z,90.27
2022-12-17T04:57:25.612Z,90.82
2022-12-17T05:00:10.907Z,90.01
2022-12-17T05:02:56.371Z,90.41
2022-12-17T05:05:41.408Z,89.63
2022-12-17T05:08:26.621Z,89.98
2022-12-17T05:11:11.972Z,90.35
2022-12-17T05:13:58.525Z,90.18
2022-12-17T05:16:43.802Z,90.54
2022-12-17T05:19:29.085Z,90.53
2022-12-17T05:22:14.447Z,90.29
2022-12-17T05:24:59.730Z,90.20
2022-12-17T05:27:44.981Z,90.50
2022-12-17T05:30:31.275Z,90.56
2022-12-17T05:33:17.580Z,90.45
2022-12-17T05:36:02.984Z,89.85
2022-12-17T05:38:48.381Z,90.05
2022-12-17T05:41:33.676Z,90.46
2022-12-17T05:44:19.026Z,90.79
2022-12-17T05:47:05.601Z,89.89
2022-12-17T05:49:50.929Z,90.30
2022-12-17T05:52:36.292Z,90.38
2022-12-17T05:55:21.581Z,90.38
2022-12-17T05:58:06.911Z,90.81
2022-12-17T06:01:00.687Z,90.99
2022-12-17T06:03:47.368Z,91.20
2022-12-17T06:06:32.669Z,90.70
2022-12-17T06:09:17.984Z,90.91
2022-12-17T06:12:03.317Z,91.16
2022-12-17T06:14:44.750Z,91.36
2022-12-17T06:17:30.012Z,90.98
2022-12-17T06:20:16.710Z,91.78
2022-12-17T06:23:01.840Z,91.58
2022-12-17T06:25:47.042Z,92.46
2022-12-17T06:28:32.224Z,92.87
2022-12-17T06:31:17.557Z,92.42
2022-12-17T06:33:59.129Z,93.26
2022-12-17T06:36:45.665Z,93.41
2022-12-17T06:39:30.989Z,94.08
2022-12-17T06:42:16.203Z,94.29
2022-12-17T06:45:01.389Z,94.46
2022-12-17T06:47:46.748Z,95.27
2022-12-17T06:50:28.382Z,94.65
2022-12-17T06:53:19.606Z,95.20
2022-12-17T06:56:13.324Z,95.22
2022-12-17T06:58:58.590Z,94.86
2022-12-17T07:01:44.399Z,94.76
2022-12-17T07:04:44.410Z,94.96
2022-12-17T07:07:29.163Z,94.90
2022-12-17T07:10:21.373Z,94.84
2022-12-17T07:13:06.916Z,94.84
2022-12-17T07:15:52.157Z,94.99
2022-12-17T07:18:37.526Z,95.27
2022-12-17T07:21:22.726Z,94.62
2022-12-17T07:24:08.056Z,94.62
2022-12-17T07:26:54.791Z,94.82
2022-12-17T07:29:40.105Z,94.64
2022-12-17T07:32:25.482Z,94.78
2022-12-17T07:35:10.724Z,95.58
2022-12-17T07:37:55.938Z,95.52
2022-12-17T07:40:41.299Z,95.79
2022-12-17T07:43:30.291Z,96.01
2022-12-17T07:46:20.867Z,96.26
2022-12-17T07:49:08.432Z,96.17
2022-12-17T07:51:53.778Z,96.25
2022-12-17T07:54:39.152Z,96.03
2022-12-17T07:57:24.197Z,96.10
2022-12-17T08:00:25.287Z,95.66
2022-12-17T08:03:15.286Z,95.84
2022-12-17T08:06:00.276Z,95.84
2022-12-17T08:08:45.550Z,95.99
2022-12-17T08:11:30.951Z,96.17
2022-12-17T08:14:16.456Z,96.24
2022-12-17T08:17:03.266Z,95.90
2022-12-17T08:19:48.763Z,95.84
2022-12-17T08:22:31.892Z,95.90
2022-12-17T08:25:17.179Z,94.77
2022-12-17T08:28:04.578Z,95.13
2022-12-17T08:30:55.838Z,94.53
2022-12-17T08:33:42.401Z,94.20
2022-12-17T08:36:27.781Z,94.09
2022-12-17T08:39:12.990Z,93.88
2022-12-17T08:42:03.960Z,93.09
2022-12-17T08:44:49.615Z,92.82
2022-12-17T08:47:35.334Z,93.46
2022-12-17T08:50:22.868Z,93.14
2022-12-17T08:53:08.191Z,92.86
2022-12-17T08:55:59.782Z,93.16
2022-12-17T08:58:59.300Z,92.95
2022-12-17T09:01:48.161Z,92.38
2022-12-17T09:04:36.232Z,92.59
2022-12-17T09:07:31.903Z,92.52
2022-12-17T09:10:40.386Z,92.53
2022-12-17T09:13:37.446Z,92.64
2022-12-17T09:16:23.272Z,92.45
2022-12-17T09:19:09.062Z,93.29
2022-12-17T09:21:54.270Z,92.72
2022-12-17T09:24:40.576Z,92.50
2022-12-17T09:27:25.975Z,92.79
2022-12-17T09:30:11.413Z,92.55
2022-12-17T09:32:56.652Z,92.43
2022-12-17T09:35:41.807Z,91.89
2022-12-17T09:38:30.178Z,92.54
2022-12-17T09:41:19.315Z,92.51
2022-12-17T09:44:09.817Z,92.23
2022-12-17T09:46:59.797Z,92.18
2022-12-17T09:49:47.716Z,92.42
2022-12-17T09:52:38.664Z,92.83
2022-12-17T09:55:37.476Z,92.67
2022-12-17T09:58:24.735Z,92.80
2022-12-17T10:01:11.494Z,91.93
2022-12-17T10:03:57.637Z,92.29
2022-12-17T10:06:44.240Z,92.43
2022-12-17T10:09:37.474Z,92.39
2022-12-17T10:12:31.547Z,92.32
2022-12-17T10:15:18.165Z,91.08
2022-12-17T10:18:03.527Z,91.71
2022-12-17T10:21:03.894Z,91.63
2022-12-17T10:23:50.971Z,91.76
2022-12-17T10:26:38.819Z,91.73
2022-12-17T10:29:30.608Z,91.18
2022-12-17T10:32:28.070Z,92.21
2022-12-17T10:35:13.392Z,91.38
2022-12-17T10:37:55.168Z,92.02
2022-12-17T10:40:44.021Z,92.06
2022-12-17T10:43:39.735Z,92.15
2022-12-17T10:46:25.239Z,91.90
2022-12-17T10:49:22.072Z,91.73
2022-12-17T10:52:08.094Z,91.32
2022-12-17T10:54:58.906Z,91.95
2022-12-17T10:57:49.398Z,91.73
2022-12-17T11:00:49.065Z,92.04
2022-12-17T11:03:43.131Z,92.45
2022-12-17T11:06:30.134Z,91.72
2022-12-17T11:09:15.820Z,91.09
2022-12-17T11:12:07.099Z,90.51
2022-12-17T11:15:00.739Z,90.10
2022-12-17T11:17:47.078Z,90.13
2022-12-17T11:20:40.971Z,89.81
2022-12-17T11:23:33.214Z,90.79
2022-12-17T11:26:22.005Z,90.35
2022-12-17T11:29:07.434Z,90.72
2022-12-17T11:32:06.966Z,90.61
2022-12-17T11:35:07.561Z,90.43
2022-12-17T11:37:57.556Z,90.30
2022-12-17T11:40:49.454Z,89.78
2022-12-17T11:43:40.480Z,89.51
2022-12-17T11:46:35.892Z,89.63
2022-12-17T11:49:30.339Z,90.09
2022-12-17T11:52:20.777Z,89.87
2022-12-17T11:55:11.523Z,89.99
2022-12-17T11:58:04.328Z,89.64
2022-12-17T12:00:52.697Z,89.94
2022-12-17T12:03:46.833Z,88.49
2022-12-17T12:06:36.512Z,89.22
2022-12-17T12:09:30.956Z,89.54
2022-12-17T12:12:22.225Z,89.67
2022-12-17T12:15:14.833Z,89.38
2022-12-17T12:18:05.001Z,89.80
2022-12-17T12:21:14.098Z,91.92
2022-12-17T12:24:07.963Z,91.86
2022-12-17T12:27:00.840Z,91.99
2022-12-17T12:29:52.083Z,92.15
2022-12-17T12:32:43.858Z,91.28
2022-12-17T12:35:34.051Z,89.85
2022-12-17T12:38:19.497Z,91.11
2022-12-17T12:41:07.358Z,92.28
2022-12-17T12:43:54.367Z,90.90
2022-12-17T12:46:43.424Z,90.72
2022-12-17T12:49:37.129Z,90.61
2022-12-17T12:52:22.421Z,89.80
2022-12-17T12:55:11.763Z,88.89
2022-12-17T12:57:59.014Z,87.91
2022-12-17T13:00:47.972Z,87.74
2022-12-17T13:03:40.038Z,87.39
2022-12-17T13:06:09.319Z,86.61
2022-12-17T13:08:37.525Z,87.07
2022-12-17T13:11:25.732Z,87.29
2022-12-17T13:13:56.793Z,87.74
2022-12-17T13:16:32.776Z,87.80
2022-12-17T13:19:06.034Z,88.20
2022-12-17T13:21:35.965Z,89.44
2022-12-17T13:24:11.930Z,90.57
2022-12-17T13:26:46.382Z,90.94
2022-12-17T13:29:22.666Z,91.47
2022-12-17T13:32:04.539Z,91.78
2022-12-17T13:34:41.303Z,90.62
2022-12-17T13:37:14.326Z,90.07
2022-12-17T13:39:47.173Z,90.42
2022-12-17T13:42:19.403Z,89.49
2022-12-17T13:44:47.714Z,89.70
2022-12-17T13:47:21.875Z,90.24
2022-12-17T13:50:24.418Z,89.97
2022-12-17T13:52:40.705Z,88.93
2022-12-17T13:55:11.242Z,88.27
2022-12-17T13:57:45.698Z,86.96
2022-12-17T14:00:22.624Z,87.29
2022-12-17T14:02:50.556Z,87.46
2022-12-17T14:05:25.150Z,87.75
2022-12-17T14:07:54.651Z,88.52
2022-12-17T14:10:22.567Z,88.65
2022-12-17T14:12:50.058Z,88.53
2022-12-17T14:15:25.648Z,88.32
2022-12-17T14:17:58.851Z,88.02
2022-12-17T14:20:27.848Z,88.45
2022-12-17T14:23:03.288Z,89.18
2022-12-17T14:25:33.867Z,88.32
2022-12-17T14:28:04.637Z,88.72
2022-12-17T14:30:46.341Z,87.92
2022-12-17T14:33:31.068Z,89.06
2022-12-17T14:35:59.991Z,89.04
2022-12-17T14:38:38.999Z,88.92
2022-12-17T14:41:31.829Z,89.36
2022-12-17T14:44:01.258Z,88.97
2022-12-17T14:46:31.330Z,89.43
2022-12-17T14:49:16.172Z,89.16
2022-12-17T14:51:44.112Z,89.26
2022-12-17T14:54:31.296Z,89.43
2022-12-17T14:57:01.791Z,89.61
2022-12-17T14:59:34.699Z,90.67
2022-12-17T15:02:05.900Z,90.51
2022-12-17T15:04:33.981Z,90.70
2022-12-17T15:07:02.341Z,90.70
2022-12-17T15:09:32.732Z,90.35
2022-12-17T15:12:00.625Z,90.63
2022-12-17T15:14:29.966Z,90.50
2022-12-17T15:16:59.224Z,90.94
2022-12-17T15:19:26.792Z,91.12
2022-12-17T15:21:54.354Z,91.44
2022-12-17T15:24:24.982Z,91.25
2022-12-17T15:26:55.004Z,91.56
2022-12-17T15:29:24.287Z,91.50
2022-12-17T15:31:51.957Z,91.61
2022-12-17T15:34:19.674Z,91.28
2022-12-17T15:36:47.923Z,91.68
2022-12-17T15:39:15.674Z,91.68
2022-12-17T15:42:00.622Z,91.33
2022-12-17T15:44:29.701Z,91.96
2022-12-17T15:47:53.927Z,91.54
2022-12-17T15:50:47.014Z,91.48
2022-12-17T15:53:14.812Z,91.69
2022-12-17T15:55:42.699Z,91.88
2022-12-17T15:58:29.412Z,91.82
2022-12-17T16:01:15.174Z,91.99
2022-12-17T16:04:25.406Z,91.61
2022-12-17T16:06:53.200Z,91.63
2022-12-17T16:09:24.351Z,91.71
2022-12-17T16:11:54.486Z,91.78
2022-12-17T16:14:24.549Z,91.91
2022-12-17T16:16:54.387Z,91.67
2022-12-17T16:19:26.079Z,91.97
2022-12-17T16:21:53.852Z,92.32
2022-12-17T16:24:22.690Z,92.06
2022-12-17T16:26:52.113Z,92.19
2022-12-17T16:29:19.760Z,92.50
2022-12-17T16:31:47.608Z,92.44
2022-12-17T16:34:17.112Z,92.48
2022-12-17T16:37:12.405Z,92.96
2022-12-17T16:39:39.971Z,92.81
2022-12-17T16:42:08.293Z,92.35
2022-12-17T16:44:38.160Z,92.11
2022-12-17T16:47:06.934Z,92.45
2022-12-17T16:49:43.695Z,90.96
2022-12-17T16:52:26.879Z,90.97
2022-12-17T16:55:01.444Z,91.21
2022-12-17T16:57:36.529Z,91.24
2022-12-17T17:00:04.987Z,91.50
2022-12-17T17:02:33.262Z,91.50
2022-12-17T17:05:02.367Z,91.73
2022-12-17T17:07:32.951Z,91.56
2022-12-17T17:10:00.763Z,91.54
2022-12-17T17:12:28.524Z,92.30
2022-12-17T17:14:56.418Z,91.70
2022-12-17T17:17:54.340Z,91.19
2022-12-17T17:20:17.292Z,91.50
2022-12-17T17:22:50.373Z,91.68
2022-12-17T17:25:21.190Z,92.11
2022-12-17T17:27:49.082Z,91.57
2022-12-17T17:30:17.226Z,92.04
2022-12-17T17:32:45.097Z,92.35
2022-12-17T17:35:12.806Z,91.91
2022-12-17T17:37:42.329Z,91.95
2022-12-17T17:40:11.822Z,91.78
2022-12-17T17:42:39.739Z,91.39
2022-12-17T17:45:09.043Z,91.23
2022-12-17T17:47:36.839Z,90.62
2022-12-17T17:50:04.983Z,90.80
2022-12-17T17:52:32.861Z,91.12
2022-12-17T17:55:02.395Z,91.28
2022-12-17T17:57:35.617Z,91.17
2022-12-17T18:00:04.247Z,91.00
2022-12-17T18:02:32.471Z,91.11
2022-12-17T18:05:06.709Z,90.87
2022-12-17T18:07:39.266Z,90.90
2022-12-17T18:10:09.920Z,91.30
2022-12-17T18:12:59.599Z,91.72
2022-12-17T18:15:27.373Z,91.88
2022-12-17T18:17:55.365Z,91.84
2022-12-17T18:20:23.858Z,92.32
2022-12-17T18:22:51.514Z,91.64
2022-12-17T18:25:23.067Z,91.72
2022-12-17T18:27:52.872Z,91.77
2022-12-17T18:30:21.324Z,92.54
2022-12-17T18:32:48.804Z,92.61
2022-12-17T18:35:16.612Z,92.68
2022-12-17T18:37:44.105Z,92.54
2022-12-17T18:40:12.149Z,93.18
2022-12-17T18:43:00.599Z,92.73
2022-12-17T18:45:28.106Z,93.23
2022-12-17T18:47:55.642Z,92.90
2022-12-17T18:50:23.196Z,93.08
2022-12-17T18:52:50.739Z,92.95
2022-12-17T18:55:18.405Z,93.06
2022-12-17T18:57:47.304Z,92.79
2022-12-17T19:00:15.831Z,92.93
2022-12-17T19:02:44.180Z,92.74
2022-12-17T19:05:12.020Z,92.56
2022-12-17T19:07:39.510Z,92.79
2022-12-17T19:10:07.984Z,92.86
2022-12-17T19:12:35.750Z,92.93
2022-12-17T19:15:05.114Z,92.87
2022-12-17T19:17:32.668Z,93.28
2022-12-17T19:20:00.174Z,92.84
2022-12-17T19:22:27.747Z,93.08
2022-12-17T19:24:55.289Z,92.92
2022-12-17T19:27:22.877Z,92.99
2022-12-17T19:29:50.485Z,92.65
2022-12-17T19:32:36.443Z,92.00
2022-12-17T19:35:08.660Z,92.89
2022-12-17T19:37:36.471Z,92.86
2022-12-17T19:40:04.741Z,92.48
2022-12-17T19:42:37.430Z,93.16
2022-12-17T19:45:06.130Z,92.66
2022-12-17T19:47:35.169Z,92.47
2022-12-17T19:50:04.973Z,92.34
2022-12-17T19:52:32.771Z,92.45
2022-12-17T19:55:00.381Z,92.67
2022-12-17T19:57:28.194Z,92.78
2022-12-17T19:59:55.935Z,92.57
2022-12-17T20:02:28.352Z,92.73
2022-12-17T20:05:00.170Z,92.20
2022-12-17T20:07:27.846Z,92.32
2022-12-17T20:09:55.499Z,92.62
2022-12-17T20:12:23.161Z,92.85
2022-12-17T20:14:51.160Z,92.73
2022-12-17T20:17:20.425Z,92.83
2022-12-17T20:19:49.501Z,93.06
2022-12-17T20:22:18.508Z,93.08
2022-12-17T20:24:46.194Z,93.30
2022-12-17T20:27:13.918Z,93.25
2022-12-17T20:29:41.608Z,93.10
2022-12-17T20:32:09.288Z,93.44
2022-12-17T20:34:36.933Z,93.35
2022-12-17T20:37:04.641Z,93.23
2022-12-17T20:39:33.701Z,93.19
2022-12-17T20:42:01.491Z,93.00
2022-12-17T20:44:29.236Z,92.59
2022-12-17T20:46:56.955Z,92.71
2022-12-17T20:49:24.729Z,92.27
2022-12-17T20:51:52.354Z,92.05
2022-12-17T20:54:21.438Z,92.20
2022-12-17T20:56:50.695Z,91.90
2022-12-17T20:59:19.782Z,91.82
2022-12-17T21:01:53.005Z,91.71
2022-12-17T21:04:23.472Z,91.85
2022-12-17T21:06:51.182Z,92.17
2022-12-17T21:09:20.949Z,92.22
2022-12-17T21:11:50.085Z,92.08
2022-12-17T21:14:19.390Z,91.93
2022-12-17T21:16:47.634Z,92.02
2022-12-17T21:19:16.440Z,92.13
2022-12-17T21:21:44.508Z,91.90
2022-12-17T21:24:12.528Z,92.19
2022-12-17T21:26:42.169Z,92.85
2022-12-17T21:29:11.581Z,93.03
2022-12-17T21:31:40.797Z,92.68
2022-12-17T21:34:10.849Z,92.89
2022-12-17T21:36:38.642Z,92.38
2022-12-17T21:39:08.978Z,92.58
2022-12-17T21:41:44.657Z,92.72
2022-12-17T21:44:15.454Z,92.44
2022-12-17T21:46:44.024Z,91.83
2022-12-17T21:49:17.576Z,91.89
2022-12-17T21:51:45.752Z,91.72
2022-12-17T21:54:19.713Z,92.30
2022-12-17T21:56:48.282Z,91.97
2022-12-17T21:59:17.754Z,92.08
2022-12-17T22:01:45.779Z,92.53
2022-12-17T22:04:13.604Z,92.56
2022-12-17T22:06:46.617Z,92.60
2022-12-17T22:09:29.436Z,92.59
2022-12-17T22:12:26.849Z,92.30
2022-12-17T22:14:55.901Z,92.56
2022-12-17T22:17:24.144Z,92.31
2022-12-17T22:20:00.720Z,92.60
2022-12-17T22:22:30.612Z,92.24
2022-12-17T22:25:00.893Z,92.63
2022-12-17T22:27:32.416Z,92.94
2022-12-17T22:30:19.170Z,92.20
2022-12-17T22:33:03.110Z,92.84
2022-12-17T22:37:08.620Z,92.39
2022-12-17T22:42:53.389Z,91.71
2022-12-17T22:44:33.478Z,92.18
2022-12-17T22:44:48.488Z,91.94
2022-12-17T22:47:17.768Z,92.55
2022-12-17T22:49:45.635Z,92.28
2022-12-17T22:52:17.508Z,92.23
2022-12-17T22:54:46.637Z,92.27
2022-12-17T22:57:36.688Z,92.33
2022-12-17T23:00:02.492Z,92.21
2022-12-17T23:02:32.146Z,91.90
2022-12-17T23:05:00.855Z,91.91
2022-12-17T23:07:33.367Z,91.82
2022-12-17T23:10:01.024Z,91.81
2022-12-17T23:12:46.242Z,91.96
2022-12-17T23:15:13.933Z,91.90
2022-12-17T23:17:43.057Z,92.22
2022-12-17T23:20:12.116Z,91.74
2022-12-17T23:22:42.634Z,92.09
2022-12-17T23:25:11.041Z,91.91
2022-12-17T23:27:38.943Z,91.89
2022-12-17T23:30:10.363Z,91.98
2022-12-17T23:32:38.100Z,92.30
2022-12-17T23:35:08.313Z,92.00
2022-12-17T23:37:39.993Z,92.40
2022-12-17T23:40:09.389Z,92.26
2022-12-17T23:42:37.046Z,92.80
2022-12-17T23:45:05.901Z,92.61
2022-12-17T23:47:33.558Z,93.26
2022-12-17T23:50:01.245Z,92.82
2022-12-17T23:52:30.448Z,92.94
2022-12-17T23:55:01.449Z,92.88
2022-12-17T23:57:29.718Z,92.90
